createdAt,value
2019-03-02T00:00:21.834Z,1011.01
2019-03-02T00:01:02.411Z,1011
2019-03-02T00:01:45.771Z,1010.98
2019-03-02T00:02:24.106Z,1011.02
2019-03-02T00:03:04.184Z,1010.98
2019-03-02T00:03:44.770Z,1010.95
2019-03-02T00:04:25.318Z,1010.98
2019-03-02T00:05:05.886Z,1010.99
2019-03-02T00:05:46.454Z,1010.97
2019-03-02T00:06:27.014Z,1011.02
2019-03-02T00:07:07.940Z,1011
2019-03-02T00:07:48.835Z,1011
2019-03-02T00:08:28.795Z,1010.99
2019-03-02T00:09:09.350Z,1011.02
2019-03-02T00:09:49.929Z,1011.03
2019-03-02T00:10:30.489Z,1011.02
2019-03-02T00:11:11.069Z,1011.05
2019-03-02T00:11:52.818Z,1011.06
2019-03-02T00:12:32.907Z,1011.08
2019-03-02T00:13:12.714Z,1011.07
2019-03-02T00:13:53.310Z,1011.07
2019-03-02T00:14:33.883Z,1011.04
2019-03-02T00:15:14.443Z,1011.04
2019-03-02T00:15:55.022Z,1011.04
2019-03-02T00:16:35.639Z,1011.04
2019-03-02T00:17:19.015Z,1011.03
2019-03-02T00:17:56.804Z,1010.99
2019-03-02T00:18:37.370Z,1011.04
2019-03-02T00:19:17.919Z,1011
2019-03-02T00:19:58.492Z,1011.03
2019-03-02T00:20:39.061Z,1011.03
2019-03-02T00:21:19.671Z,1011.01
2019-03-02T00:22:06.306Z,1011
2019-03-02T00:22:43.380Z,1011
2019-03-02T00:23:21.377Z,1011.01
2019-03-02T00:24:01.966Z,1011.01
2019-03-02T00:24:42.524Z,1011.03
2019-03-02T00:25:23.095Z,1011.04
2019-03-02T00:26:06.107Z,1011.03
2019-03-02T00:26:45.935Z,1011.07
2019-03-02T00:27:24.801Z,1011.08
2019-03-02T00:28:05.383Z,1011.11
2019-03-02T00:28:45.955Z,1011.1
2019-03-02T00:29:26.520Z,1011.09
2019-03-02T00:30:07.109Z,1011.1
2019-03-02T00:30:47.666Z,1011.07
2019-03-02T00:31:29.782Z,1011.11
2019-03-02T00:32:09.529Z,1011.05
2019-03-02T00:32:49.390Z,1011.06
2019-03-02T00:33:29.973Z,1011.09
2019-03-02T00:34:10.539Z,1011.04
2019-03-02T00:34:51.113Z,1011.08
2019-03-02T00:35:31.698Z,1011.06
2019-03-02T00:36:12.287Z,1011.08
2019-03-02T00:36:54.850Z,1011.08
2019-03-02T00:37:33.747Z,1011.04
2019-03-02T00:38:13.996Z,1011.03
2019-03-02T00:38:54.605Z,1011.08
2019-03-02T00:39:35.173Z,1011.06
2019-03-02T00:40:15.735Z,1011.07
2019-03-02T00:40:56.334Z,1011.06
2019-03-02T00:41:38.636Z,1011.09
2019-03-02T00:42:17.843Z,1011.11
2019-03-02T00:42:58.088Z,1011.06
2019-03-02T00:43:38.680Z,1011.05
2019-03-02T00:44:19.285Z,1011.02
2019-03-02T00:44:59.849Z,1011
2019-03-02T00:45:40.421Z,1011.01
2019-03-02T00:46:23.837Z,1011.04
2019-03-02T00:47:01.569Z,1011.01
2019-03-02T00:47:42.146Z,1011.01
2019-03-02T00:48:22.735Z,1011.02
2019-03-02T00:49:03.302Z,1010.98
2019-03-02T00:49:43.898Z,1010.96
2019-03-02T00:50:24.458Z,1010.97
2019-03-02T00:51:07.855Z,1010.99
2019-03-02T00:51:46.212Z,1010.96
2019-03-02T00:52:26.163Z,1010.98
2019-03-02T00:53:06.708Z,1010.98
2019-03-02T00:53:47.311Z,1011
2019-03-02T00:54:27.863Z,1011.02
2019-03-02T00:55:08.446Z,1010.99
2019-03-02T00:55:49.027Z,1010.99
2019-03-02T00:56:29.618Z,1011
2019-03-02T00:57:10.194Z,1011.01
2019-03-02T00:57:53.415Z,1010.99
2019-03-02T00:58:31.308Z,1010.99
2019-03-02T00:59:11.877Z,1011.01
2019-03-02T00:59:52.473Z,1011.04
2019-03-02T01:00:33.025Z,1011.01
2019-03-02T01:01:13.606Z,1011
2019-03-02T01:01:54.182Z,1011
2019-03-02T01:02:36.719Z,1011.01
2019-03-02T01:03:15.579Z,1010.99
2019-03-02T01:03:55.940Z,1010.99
2019-03-02T01:04:36.533Z,1011.03
2019-03-02T01:05:17.109Z,1011.02
2019-03-02T01:05:57.682Z,1010.99
2019-03-02T01:06:38.255Z,1010.98
2019-03-02T01:07:20.704Z,1010.95
2019-03-02T01:07:59.887Z,1010.97
2019-03-02T01:08:39.981Z,1010.95
2019-03-02T01:09:20.546Z,1010.94
2019-03-02T01:10:01.135Z,1010.92
2019-03-02T01:10:41.687Z,1010.9
2019-03-02T01:11:22.309Z,1010.94
2019-03-02T01:12:05.772Z,1010.94
2019-03-02T01:12:44.128Z,1010.94
2019-03-02T01:13:24.039Z,1010.92
2019-03-02T01:14:04.620Z,1010.9
2019-03-02T01:14:45.205Z,1010.9
2019-03-02T01:15:25.780Z,1010.93
2019-03-02T01:16:06.345Z,1010.93
2019-03-02T01:16:46.924Z,1010.92
2019-03-02T01:17:30.741Z,1010.93
2019-03-02T01:18:08.030Z,1010.91
2019-03-02T01:18:48.607Z,1010.91
2019-03-02T01:19:29.173Z,1010.92
2019-03-02T01:20:09.764Z,1010.91
2019-03-02T01:20:51.127Z,1010.91
2019-03-02T01:21:31.711Z,1010.94
2019-03-02T01:22:13.497Z,1010.88
2019-03-02T01:22:52.889Z,1010.92
2019-03-02T01:23:33.472Z,1010.91
2019-03-02T01:24:14.093Z,1010.9
2019-03-02T01:24:54.647Z,1010.9
2019-03-02T01:25:35.213Z,1010.92
2019-03-02T01:26:15.776Z,1010.91
2019-03-02T01:26:59.380Z,1010.91
2019-03-02T01:27:36.934Z,1010.86
2019-03-02T01:28:17.494Z,1010.86
2019-03-02T01:28:58.054Z,1010.83
2019-03-02T01:29:38.610Z,1010.84
2019-03-02T01:30:19.184Z,1010.85
2019-03-02T01:31:01.716Z,1010.88
2019-03-02T01:31:40.649Z,1010.86
2019-03-02T01:32:20.877Z,1010.86
2019-03-02T01:33:01.452Z,1010.83
2019-03-02T01:33:42.032Z,1010.85
2019-03-02T01:34:22.590Z,1010.8
2019-03-02T01:35:03.155Z,1010.81
2019-03-02T01:35:43.854Z,1010.85
2019-03-02T01:36:24.435Z,1010.86
2019-03-02T01:37:08.043Z,1010.8
2019-03-02T01:37:45.599Z,1010.85
2019-03-02T01:38:26.189Z,1010.85
2019-03-02T01:39:06.766Z,1010.88
2019-03-02T01:39:47.311Z,1010.87
2019-03-02T01:40:27.877Z,1010.81
2019-03-02T01:41:08.443Z,1010.84
2019-03-02T01:41:50.938Z,1010.79
2019-03-02T01:42:30.645Z,1010.79
2019-03-02T01:43:10.179Z,1010.79
2019-03-02T01:43:50.778Z,1010.8
2019-03-02T01:44:31.364Z,1010.82
2019-03-02T01:45:11.928Z,1010.88
2019-03-02T01:45:52.512Z,1010.85
2019-03-02T01:46:33.081Z,1010.85
2019-03-02T01:47:15.728Z,1010.82
2019-03-02T01:47:54.219Z,1010.82
2019-03-02T01:48:34.813Z,1010.87
2019-03-02T01:49:15.381Z,1010.86
2019-03-02T01:49:55.944Z,1010.89
2019-03-02T01:50:36.523Z,1010.82
2019-03-02T01:51:19.648Z,1010.83
2019-03-02T01:51:58.152Z,1010.81
2019-03-02T01:52:38.233Z,1010.82
2019-03-02T01:53:18.800Z,1010.77
2019-03-02T01:53:59.367Z,1010.77
2019-03-02T01:54:39.942Z,1010.73
2019-03-02T01:55:20.508Z,1010.73
2019-03-02T01:56:02.668Z,1010.76
2019-03-02T01:56:42.619Z,1010.76
2019-03-02T01:57:22.218Z,1010.71
2019-03-02T01:58:02.807Z,1010.74
2019-03-02T01:58:43.431Z,1010.7
2019-03-02T01:59:23.999Z,1010.72
2019-03-02T02:00:04.580Z,1010.7
2019-03-02T02:00:45.654Z,1010.71
2019-03-02T02:01:25.888Z,1010.68
2019-03-02T02:02:06.326Z,1010.69
2019-03-02T02:02:46.875Z,1010.68
2019-03-02T02:03:27.910Z,1010.71
2019-03-02T02:04:08.508Z,1010.67
2019-03-02T02:04:49.084Z,1010.71
2019-03-02T02:05:31.914Z,1010.69
2019-03-02T02:06:10.217Z,1010.68
2019-03-02T02:06:50.820Z,1010.67
2019-03-02T02:07:31.402Z,1010.7
2019-03-02T02:08:11.973Z,1010.71
2019-03-02T02:08:52.569Z,1010.68
2019-03-02T02:09:33.173Z,1010.69
2019-03-02T02:10:13.753Z,1010.7
2019-03-02T02:10:54.326Z,1010.67
2019-03-02T02:11:34.900Z,1010.68
2019-03-02T02:12:15.498Z,1010.66
2019-03-02T02:12:56.048Z,1010.59
2019-03-02T02:13:38.845Z,1010.62
2019-03-02T02:14:18.529Z,1010.65
2019-03-02T02:14:57.775Z,1010.64
2019-03-02T02:15:38.362Z,1010.64
2019-03-02T02:16:18.933Z,1010.62
2019-03-02T02:16:59.573Z,1010.61
2019-03-02T02:17:40.143Z,1010.6
2019-03-02T02:18:20.718Z,1010.6
2019-03-02T02:19:02.422Z,1010.58
2019-03-02T02:19:41.877Z,1010.59
2019-03-02T02:20:22.454Z,1010.58
2019-03-02T02:21:03.016Z,1010.54
2019-03-02T02:21:43.595Z,1010.52
2019-03-02T02:22:24.165Z,1010.51
2019-03-02T02:23:04.753Z,1010.49
2019-03-02T02:23:45.695Z,1010.54
2019-03-02T02:24:25.946Z,1010.48
2019-03-02T02:25:06.506Z,1010.5
2019-03-02T02:25:47.081Z,1010.44
2019-03-02T02:26:27.678Z,1010.43
2019-03-02T02:27:08.233Z,1010.43
2019-03-02T02:27:48.850Z,1010.45
2019-03-02T02:28:32.216Z,1010.38
2019-03-02T02:29:09.988Z,1010.36
2019-03-02T02:29:50.544Z,1010.37
2019-03-02T02:30:31.129Z,1010.37
2019-03-02T02:31:11.729Z,1010.38
2019-03-02T02:31:52.300Z,1010.33
2019-03-02T02:32:32.863Z,1010.33
2019-03-02T02:33:13.430Z,1010.28
2019-03-02T02:33:53.997Z,1010.31
2019-03-02T02:34:34.559Z,1010.31
2019-03-02T02:35:15.129Z,1010.31
2019-03-02T02:35:55.707Z,1010.31
2019-03-02T02:36:36.251Z,1010.32
2019-03-02T02:37:16.805Z,1010.33
2019-03-02T02:37:57.368Z,1010.34
2019-03-02T02:38:37.935Z,1010.32
2019-03-02T02:39:18.517Z,1010.28
2019-03-02T02:39:59.072Z,1010.27
2019-03-02T02:40:39.664Z,1010.31
2019-03-02T02:41:22.868Z,1010.29
2019-03-02T02:42:05.074Z,1010.3
2019-03-02T02:42:43.135Z,1010.3
2019-03-02T02:43:22.277Z,1010.29
2019-03-02T02:44:02.485Z,1010.3
2019-03-02T02:44:43.044Z,1010.27
2019-03-02T02:45:23.599Z,1010.28
2019-03-02T02:46:04.199Z,1010.26
2019-03-02T02:46:44.752Z,1010.29
2019-03-02T02:47:25.341Z,1010.28
2019-03-02T02:48:05.903Z,1010.3
2019-03-02T02:48:46.511Z,1010.29
2019-03-02T02:49:27.068Z,1010.23
2019-03-02T02:50:07.613Z,1010.28
2019-03-02T02:50:48.205Z,1010.24
2019-03-02T02:51:28.774Z,1010.27
2019-03-02T02:52:09.331Z,1010.23
2019-03-02T02:52:49.918Z,1010.21
2019-03-02T02:53:30.473Z,1010.2
2019-03-02T02:54:11.037Z,1010.24
2019-03-02T02:54:51.604Z,1010.22
2019-03-02T02:55:35.961Z,1010.21
2019-03-02T02:56:14.187Z,1010.24
2019-03-02T02:56:54.050Z,1010.23
2019-03-02T02:57:38.216Z,1010.24
2019-03-02T02:58:17.430Z,1010.25
2019-03-02T02:58:56.115Z,1010.25
2019-03-02T02:59:38.436Z,1010.23
2019-03-02T03:00:17.559Z,1010.23
2019-03-02T03:00:56.851Z,1010.21
2019-03-02T03:01:37.264Z,1010.19
2019-03-02T03:02:17.809Z,1010.21
2019-03-02T03:02:58.375Z,1010.2
2019-03-02T03:03:38.968Z,1010.16
2019-03-02T03:04:19.553Z,1010.21
2019-03-02T03:05:00.280Z,1010.16
2019-03-02T03:05:40.663Z,1010.2
2019-03-02T03:06:21.236Z,1010.18
2019-03-02T03:07:01.801Z,1010.21
2019-03-02T03:07:42.374Z,1010.18
2019-03-02T03:08:22.952Z,1010.21
2019-03-02T03:09:05.103Z,1010.2
2019-03-02T03:09:45.247Z,1010.21
2019-03-02T03:10:27.696Z,1010.19
2019-03-02T03:11:06.521Z,1010.18
2019-03-02T03:11:45.878Z,1010.16
2019-03-02T03:12:26.367Z,1010.18
2019-03-02T03:13:06.924Z,1010.13
2019-03-02T03:13:47.502Z,1010.14
2019-03-02T03:14:28.118Z,1010.15
2019-03-02T03:15:08.693Z,1010.15
2019-03-02T03:15:49.267Z,1010.15
2019-03-02T03:16:29.850Z,1010.16
2019-03-02T03:17:10.473Z,1010.14
2019-03-02T03:17:51.043Z,1010.16
2019-03-02T03:18:31.715Z,1010.19
2019-03-02T03:19:12.257Z,1010.15
2019-03-02T03:19:52.839Z,1010.21
2019-03-02T03:20:33.366Z,1010.18
2019-03-02T03:21:13.941Z,1010.19
2019-03-02T03:21:54.472Z,1010.15
2019-03-02T03:22:35.020Z,1010.19
2019-03-02T03:23:19.828Z,1010.19
2019-03-02T03:24:02.732Z,1010.17
2019-03-02T03:24:40.431Z,1010.17
2019-03-02T03:25:17.975Z,1010.2
2019-03-02T03:25:58.686Z,1010.19
2019-03-02T03:26:38.551Z,1010.2
2019-03-02T03:27:19.143Z,1010.24
2019-03-02T03:27:59.737Z,1010.15
2019-03-02T03:28:40.289Z,1010.2
2019-03-02T03:29:20.867Z,1010.18
2019-03-02T03:30:01.473Z,1010.18
2019-03-02T03:30:42.039Z,1010.14
2019-03-02T03:31:25.035Z,1010.16
2019-03-02T03:32:08.883Z,1010.14
2019-03-02T03:32:54.126Z,1010.16
2019-03-02T03:33:24.372Z,1010.11
2019-03-02T03:34:04.942Z,1010.12
2019-03-02T03:34:45.564Z,1010.14
2019-03-02T03:35:26.135Z,1010.09
2019-03-02T03:36:06.708Z,1010.16
2019-03-02T03:36:47.291Z,1010.14
2019-03-02T03:37:27.900Z,1010.11
2019-03-02T03:38:08.473Z,1010.16
2019-03-02T03:38:49.098Z,1010.15
2019-03-02T03:39:29.672Z,1010.15
2019-03-02T03:40:10.246Z,1010.2
2019-03-02T03:40:50.835Z,1010.16
2019-03-02T03:41:31.440Z,1010.19
2019-03-02T03:42:12.011Z,1010.16
2019-03-02T03:42:52.567Z,1010.16
2019-03-02T03:43:41.382Z,1010.13
2019-03-02T03:44:17.084Z,1010.13
2019-03-02T03:44:54.299Z,1010.12
2019-03-02T03:45:42.041Z,1010.15
2019-03-02T03:46:17.683Z,1010.16
2019-03-02T03:47:00.294Z,1010.13
2019-03-02T03:47:38.652Z,1010.12
2019-03-02T03:48:17.747Z,1010.15
2019-03-02T03:48:58.047Z,1010.1
2019-03-02T03:49:38.350Z,1010.18
2019-03-02T03:50:18.957Z,1010.15
2019-03-02T03:50:59.515Z,1010.16
2019-03-02T03:51:40.087Z,1010.17
2019-03-02T03:52:20.647Z,1010.14
2019-03-02T03:53:01.229Z,1010.16
2019-03-02T03:53:41.818Z,1010.14
2019-03-02T03:54:22.368Z,1010.19
2019-03-02T03:55:02.927Z,1010.15
2019-03-02T03:55:43.538Z,1010.16
2019-03-02T03:56:24.104Z,1010.16
2019-03-02T03:57:04.682Z,1010.17
2019-03-02T03:57:45.251Z,1010.16
2019-03-02T03:58:25.817Z,1010.15
2019-03-02T03:59:06.381Z,1010.16
2019-03-02T03:59:46.966Z,1010.17
2019-03-02T04:00:27.549Z,1010.16
2019-03-02T04:01:08.118Z,1010.17
2019-03-02T04:01:51.999Z,1010.14
2019-03-02T04:02:31.086Z,1010.12
2019-03-02T04:03:13.595Z,1010.12
2019-03-02T04:03:51.604Z,1010.09
2019-03-02T04:04:30.999Z,1010.13
2019-03-02T04:05:11.608Z,1010.07
2019-03-02T04:05:52.205Z,1010.06
2019-03-02T04:06:32.822Z,1010.15
2019-03-02T04:07:13.415Z,1010.15
2019-03-02T04:07:53.970Z,1010.09
2019-03-02T04:08:34.552Z,1010.08
2019-03-02T04:09:15.130Z,1010.07
2019-03-02T04:09:55.678Z,1010.12
2019-03-02T04:10:36.268Z,1010.1
2019-03-02T04:11:16.846Z,1010.1
2019-03-02T04:11:57.412Z,1010.12
2019-03-02T04:12:37.991Z,1010.09
2019-03-02T04:13:18.567Z,1010.1
2019-03-02T04:13:59.162Z,1010.1
2019-03-02T04:14:39.737Z,1010.13
2019-03-02T04:15:20.307Z,1010.07
2019-03-02T04:16:00.907Z,1010.07
2019-03-02T04:16:41.482Z,1010.12
2019-03-02T04:17:22.074Z,1010.14
2019-03-02T04:18:02.714Z,1010.1
2019-03-02T04:18:43.282Z,1010.13
2019-03-02T04:19:23.878Z,1010.16
2019-03-02T04:20:07.908Z,1010.15
2019-03-02T04:20:45.590Z,1010.18
2019-03-02T04:21:27.959Z,1010.16
2019-03-02T04:22:06.689Z,1010.12
2019-03-02T04:22:46.772Z,1010.18
2019-03-02T04:23:27.343Z,1010.15
2019-03-02T04:24:07.925Z,1010.14
2019-03-02T04:24:48.495Z,1010.16
2019-03-02T04:25:29.066Z,1010.11
2019-03-02T04:26:09.627Z,1010.14
2019-03-02T04:26:50.221Z,1010.14
2019-03-02T04:27:30.801Z,1010.14
2019-03-02T04:28:11.378Z,1010.1
2019-03-02T04:28:52.003Z,1010.14
2019-03-02T04:29:32.607Z,1010.11
2019-03-02T04:30:13.143Z,1010.1
2019-03-02T04:30:53.731Z,1010.12
2019-03-02T04:31:34.335Z,1010.12
2019-03-02T04:32:14.919Z,1010.11
2019-03-02T04:32:55.546Z,1010.08
2019-03-02T04:33:39.021Z,1010.07
2019-03-02T04:34:21.113Z,1010.11
2019-03-02T04:34:57.667Z,1010.12
2019-03-02T04:35:37.947Z,1010.12
2019-03-02T04:36:18.521Z,1010.13
2019-03-02T04:36:59.109Z,1010.11
2019-03-02T04:37:39.707Z,1010.15
2019-03-02T04:38:20.266Z,1010.12
2019-03-02T04:39:00.855Z,1010.11
2019-03-02T04:39:41.427Z,1010.09
2019-03-02T04:40:23.249Z,1010.07
2019-03-02T04:41:04.039Z,1010.04
2019-03-02T04:41:43.167Z,1010.06
2019-03-02T04:42:23.764Z,1010.06
2019-03-02T04:43:04.362Z,1010.07
2019-03-02T04:43:44.937Z,1010.08
2019-03-02T04:44:29.238Z,1010.09
2019-03-02T04:45:06.131Z,1010.07
2019-03-02T04:45:46.719Z,1010.1
2019-03-02T04:46:27.320Z,1010.08
2019-03-02T04:47:07.902Z,1010.05
2019-03-02T04:47:48.502Z,1010.08
2019-03-02T04:48:29.069Z,1010.06
2019-03-02T04:49:10.812Z,1010.04
2019-03-02T04:49:51.353Z,1010.06
2019-03-02T04:50:30.785Z,1010.07
2019-03-02T04:51:11.343Z,1010.08
2019-03-02T04:51:51.909Z,1010.09
2019-03-02T04:52:32.511Z,1010.09
2019-03-02T04:53:13.091Z,1010.1
2019-03-02T04:53:53.637Z,1010.09
2019-03-02T04:54:37.182Z,1010.08
2019-03-02T04:55:14.861Z,1010.08
2019-03-02T04:55:55.360Z,1010.12
2019-03-02T04:56:35.921Z,1010.12
2019-03-02T04:57:16.493Z,1010.11
2019-03-02T04:57:57.056Z,1010.12
2019-03-02T04:58:37.611Z,1010.1
2019-03-02T04:59:18.598Z,1010.1
2019-03-02T04:59:58.812Z,1010.1
2019-03-02T05:00:39.406Z,1010.06
2019-03-02T05:01:19.963Z,1010.04
2019-03-02T05:02:00.555Z,1010.09
2019-03-02T05:02:41.137Z,1010.06
2019-03-02T05:03:21.749Z,1010.01
2019-03-02T05:04:02.318Z,1010.02
2019-03-02T05:04:42.896Z,1010.03
2019-03-02T05:05:23.492Z,1010.01
2019-03-02T05:06:04.108Z,1010.02
2019-03-02T05:06:44.727Z,1010
2019-03-02T05:07:26.634Z,1010.01
2019-03-02T05:08:06.317Z,1010.03
2019-03-02T05:08:46.444Z,1010.01
2019-03-02T05:09:27.014Z,1009.98
2019-03-02T05:10:07.572Z,1009.99
2019-03-02T05:10:48.163Z,1009.99
2019-03-02T05:11:28.742Z,1009.98
2019-03-02T05:12:11.500Z,1010.01
2019-03-02T05:12:52.981Z,1009.97
2019-03-02T05:13:30.496Z,1009.98
2019-03-02T05:14:11.081Z,1009.99
2019-03-02T05:14:51.670Z,1009.99
2019-03-02T05:15:32.258Z,1010.04
2019-03-02T05:16:12.849Z,1010.03
2019-03-02T05:16:53.446Z,1010.01
2019-03-02T05:17:34.049Z,1010.03
2019-03-02T05:18:14.871Z,1010.01
2019-03-02T05:18:55.240Z,1010
2019-03-02T05:19:35.781Z,1010.02
2019-03-02T05:20:16.338Z,1010.03
2019-03-02T05:20:56.914Z,1010.02
2019-03-02T05:21:39.751Z,1010
2019-03-02T05:22:18.716Z,1010.01
2019-03-02T05:22:58.592Z,1009.98
2019-03-02T05:23:39.193Z,1010.02
2019-03-02T05:24:19.794Z,1010.01
2019-03-02T05:25:00.388Z,1010.01
2019-03-02T05:25:40.974Z,1009.97
2019-03-02T05:26:21.556Z,1009.96
2019-03-02T05:27:02.113Z,1009.98
2019-03-02T05:27:42.694Z,1009.98
2019-03-02T05:28:23.306Z,1009.96
2019-03-02T05:29:03.889Z,1010
2019-03-02T05:29:44.478Z,1009.98
2019-03-02T05:30:26.670Z,1009.98
2019-03-02T05:31:06.107Z,1009.99
2019-03-02T05:31:46.199Z,1010.01
2019-03-02T05:32:26.791Z,1009.96
2019-03-02T05:33:07.352Z,1009.98
2019-03-02T05:33:47.944Z,1009.99
2019-03-02T05:34:28.535Z,1010.04
2019-03-02T05:35:11.683Z,1010.01
2019-03-02T05:35:50.816Z,1010.05
2019-03-02T05:36:30.305Z,1010.04
2019-03-02T05:37:10.867Z,1010.05
2019-03-02T05:37:51.428Z,1010.07
2019-03-02T05:38:32.007Z,1010.04
2019-03-02T05:39:13.802Z,1010.06
2019-03-02T05:39:53.771Z,1010.06
2019-03-02T05:40:33.730Z,1010.09
2019-03-02T05:41:14.321Z,1010.1
2019-03-02T05:41:54.884Z,1010.07
2019-03-02T05:42:35.455Z,1010.08
2019-03-02T05:43:16.056Z,1010.1
2019-03-02T05:43:56.660Z,1010.05
2019-03-02T05:44:39.131Z,1010.06
2019-03-02T05:45:20.332Z,1010.04
2019-03-02T05:45:58.333Z,1010.07
2019-03-02T05:46:38.890Z,1010.03
2019-03-02T05:47:19.479Z,1010.07
2019-03-02T05:48:00.845Z,1010.05
2019-03-02T05:48:42.795Z,1010.06
2019-03-02T05:49:21.168Z,1010.07
2019-03-02T05:50:01.748Z,1010.06
2019-03-02T05:50:42.336Z,1010.05
2019-03-02T05:51:22.942Z,1010.09
2019-03-02T05:52:03.496Z,1010.05
2019-03-02T05:52:44.096Z,1010.09
2019-03-02T05:53:26.679Z,1010.09
2019-03-02T05:54:06.310Z,1010.06
2019-03-02T05:54:45.796Z,1010.1
2019-03-02T05:55:26.352Z,1010.11
2019-03-02T05:56:06.948Z,1010.1
2019-03-02T05:56:47.576Z,1010.07
2019-03-02T05:57:28.150Z,1010.13
2019-03-02T05:58:08.708Z,1010.14
2019-03-02T05:58:51.084Z,1010.1
2019-03-02T05:59:29.931Z,1010.09
2019-03-02T06:00:10.494Z,1010.1
2019-03-02T06:00:51.047Z,1010.12
2019-03-02T06:01:31.609Z,1010.12
2019-03-02T06:02:13.839Z,1010.08
2019-03-02T06:02:52.804Z,1010.16
2019-03-02T06:03:33.418Z,1010.13
2019-03-02T06:04:14.073Z,1010.12
2019-03-02T06:04:56.949Z,1010.12
2019-03-02T06:05:35.191Z,1010.16
2019-03-02T06:06:15.763Z,1010.12
2019-03-02T06:06:56.313Z,1010.1
2019-03-02T06:07:36.891Z,1010.12
2019-03-02T06:08:17.459Z,1010.15
2019-03-02T06:08:58.044Z,1010.14
2019-03-02T06:09:38.630Z,1010.12
2019-03-02T06:10:21.633Z,1010.13
2019-03-02T06:11:01.846Z,1010.15
2019-03-02T06:11:40.583Z,1010.11
2019-03-02T06:12:20.937Z,1010.15
2019-03-02T06:13:01.500Z,1010.11
2019-03-02T06:13:42.082Z,1010.11
2019-03-02T06:14:22.691Z,1010.09
2019-03-02T06:15:03.964Z,1010.16
2019-03-02T06:15:46.327Z,1010.05
2019-03-02T06:16:24.447Z,1010.08
2019-03-02T06:17:05.001Z,1010.08
2019-03-02T06:17:45.596Z,1010.1
2019-03-02T06:18:26.176Z,1010.1
2019-03-02T06:19:06.736Z,1010.13
2019-03-02T06:19:47.294Z,1010.16
2019-03-02T06:20:27.859Z,1010.15
2019-03-02T06:21:10.768Z,1010.14
2019-03-02T06:21:49.008Z,1010.15
2019-03-02T06:22:29.580Z,1010.14
2019-03-02T06:23:10.145Z,1010.16
2019-03-02T06:23:50.717Z,1010.16
2019-03-02T06:24:31.293Z,1010.16
2019-03-02T06:25:19.117Z,1010.19
2019-03-02T06:25:55.056Z,1010.18
2019-03-02T06:26:35.341Z,1010.2
2019-03-02T06:27:13.523Z,1010.18
2019-03-02T06:27:54.114Z,1010.2
2019-03-02T06:28:34.924Z,1010.2
2019-03-02T06:29:15.287Z,1010.19
2019-03-02T06:29:55.842Z,1010.2
2019-03-02T06:30:36.431Z,1010.21
2019-03-02T06:31:19.080Z,1010.18
2019-03-02T06:31:57.602Z,1010.17
2019-03-02T06:32:38.154Z,1010.21
2019-03-02T06:33:18.752Z,1010.19
2019-03-02T06:33:59.337Z,1010.21
2019-03-02T06:34:39.909Z,1010.2
2019-03-02T06:35:20.501Z,1010.21
2019-03-02T06:36:01.104Z,1010.24
2019-03-02T06:36:44.622Z,1010.25
2019-03-02T06:37:22.293Z,1010.26
2019-03-02T06:38:02.898Z,1010.27
2019-03-02T06:38:43.485Z,1010.24
2019-03-02T06:39:24.069Z,1010.3
2019-03-02T06:40:04.676Z,1010.28
2019-03-02T06:40:45.274Z,1010.29
2019-03-02T06:41:25.839Z,1010.3
2019-03-02T06:42:09.790Z,1010.28
2019-03-02T06:42:47.009Z,1010.31
2019-03-02T06:43:27.612Z,1010.29
2019-03-02T06:44:08.161Z,1010.31
2019-03-02T06:44:48.759Z,1010.3
2019-03-02T06:45:29.356Z,1010.29
2019-03-02T06:46:09.947Z,1010.27
2019-03-02T06:46:50.565Z,1010.26
2019-03-02T06:47:33.336Z,1010.29
2019-03-02T06:48:11.753Z,1010.28
2019-03-02T06:48:52.325Z,1010.31
2019-03-02T06:49:32.923Z,1010.32
2019-03-02T06:50:13.543Z,1010.29
2019-03-02T06:50:54.132Z,1010.31
2019-03-02T06:51:34.726Z,1010.32
2019-03-02T06:52:15.284Z,1010.3
2019-03-02T06:52:57.840Z,1010.32
2019-03-02T06:53:37.048Z,1010.34
2019-03-02T06:54:17.030Z,1010.32
2019-03-02T06:54:57.630Z,1010.33
2019-03-02T06:55:38.199Z,1010.38
2019-03-02T06:56:18.770Z,1010.32
2019-03-02T06:56:59.344Z,1010.38
2019-03-02T06:57:39.909Z,1010.38
2019-03-02T06:58:22.594Z,1010.35
2019-03-02T06:59:04.100Z,1010.34
2019-03-02T06:59:41.682Z,1010.36
2019-03-02T07:00:22.292Z,1010.38
2019-03-02T07:01:02.962Z,1010.35
2019-03-02T07:01:44.765Z,1010.38
2019-03-02T07:02:24.752Z,1010.35
2019-03-02T07:03:10.047Z,1010.38
2019-03-02T07:03:54.264Z,1010.4
2019-03-02T07:04:37.173Z,1010.36
2019-03-02T07:05:18.964Z,1010.36
2019-03-02T07:06:01.215Z,1010.32
2019-03-02T07:06:46.848Z,1010.32
2019-03-02T07:07:25.650Z,1010.37
2019-03-02T07:08:07.316Z,1010.35
2019-03-02T07:08:50.383Z,1010.34
2019-03-02T07:09:34.197Z,1010.32
2019-03-02T07:10:17.651Z,1010.32
2019-03-02T07:10:58.864Z,1010.32
2019-03-02T07:11:41.020Z,1010.32
2019-03-02T07:12:24.054Z,1010.34
2019-03-02T07:13:07.500Z,1010.33
2019-03-02T07:13:49.275Z,1010.35
2019-03-02T07:14:32.253Z,1010.38
2019-03-02T07:15:13.353Z,1010.37
2019-03-02T07:15:54.542Z,1010.39
2019-03-02T07:16:36.550Z,1010.33
2019-03-02T07:17:17.698Z,1010.38
2019-03-02T07:18:01.853Z,1010.36
2019-03-02T07:18:43.130Z,1010.38
2019-03-02T07:19:24.331Z,1010.34
2019-03-02T07:20:07.676Z,1010.34
2019-03-02T07:20:50.195Z,1010.37
2019-03-02T07:21:34.091Z,1010.37
2019-03-02T07:22:16.820Z,1010.34
2019-03-02T07:22:59.091Z,1010.36
2019-03-02T07:23:43.668Z,1010.36
2019-03-02T07:24:25.793Z,1010.33
2019-03-02T07:25:07.822Z,1010.36
2019-03-02T07:25:50.554Z,1010.4
2019-03-02T07:26:33.214Z,1010.34
2019-03-02T07:27:17.169Z,1010.36
2019-03-02T07:28:01.763Z,1010.38
2019-03-02T07:28:43.785Z,1010.37
2019-03-02T07:29:25.712Z,1010.35
2019-03-02T07:30:09.084Z,1010.36
2019-03-02T07:30:53.993Z,1010.32
2019-03-02T07:31:37.372Z,1010.41
2019-03-02T07:32:20.862Z,1010.33
2019-03-02T07:33:05.682Z,1010.34
2019-03-02T07:33:48.210Z,1010.36
2019-03-02T07:34:29.820Z,1010.31
2019-03-02T07:35:11.917Z,1010.37
2019-03-02T07:35:56.762Z,1010.35
2019-03-02T07:36:41.169Z,1010.29
2019-03-02T07:37:25.225Z,1010.31
2019-03-02T07:38:08.459Z,1010.31
2019-03-02T07:38:52.925Z,1010.28
2019-03-02T07:39:40.250Z,1010.34
2019-03-02T07:40:24.644Z,1010.35
2019-03-02T07:41:08.151Z,1010.3
2019-03-02T07:41:54.178Z,1010.32
2019-03-02T07:42:36.077Z,1010.26
2019-03-02T07:43:19.602Z,1010.3
2019-03-02T07:44:02.651Z,1010.22
2019-03-02T07:44:46.453Z,1010.27
2019-03-02T07:45:31.207Z,1010.26
2019-03-02T07:46:12.733Z,1010.26
2019-03-02T07:46:53.855Z,1010.27
2019-03-02T07:47:37.346Z,1010.33
2019-03-02T07:48:19.930Z,1010.32
2019-03-02T07:49:03.342Z,1010.36
2019-03-02T07:49:49.755Z,1010.33
2019-03-02T07:50:32.155Z,1010.39
2019-03-02T07:51:16.060Z,1010.4
2019-03-02T07:51:57.917Z,1010.4
2019-03-02T07:52:41.419Z,1010.42
2019-03-02T07:53:24.858Z,1010.41
2019-03-02T07:54:07.347Z,1010.38
2019-03-02T07:54:56.199Z,1010.39
2019-03-02T07:55:30.407Z,1010.42
2019-03-02T07:56:14.628Z,1010.41
2019-03-02T07:56:57.152Z,1010.47
2019-03-02T07:57:40.778Z,1010.42
2019-03-02T07:58:23.169Z,1010.46
2019-03-02T07:59:08.178Z,1010.43
2019-03-02T07:59:50.806Z,1010.47
2019-03-02T08:00:33.127Z,1010.44
2019-03-02T08:01:17.801Z,1010.45
2019-03-02T08:02:00.175Z,1010.42
2019-03-02T08:02:41.835Z,1010.38
2019-03-02T08:03:26.126Z,1010.36
2019-03-02T08:04:09.697Z,1010.37
2019-03-02T08:04:54.847Z,1010.38
2019-03-02T08:05:36.819Z,1010.4
2019-03-02T08:06:21.838Z,1010.38
2019-03-02T08:07:02.186Z,1010.42
2019-03-02T08:07:44.809Z,1010.44
2019-03-02T08:08:28.166Z,1010.4
2019-03-02T08:09:11.444Z,1010.32
2019-03-02T08:09:54.714Z,1010.33
2019-03-02T08:10:38.580Z,1010.3
2019-03-02T08:11:19.888Z,1010.27
2019-03-02T08:12:02.573Z,1010.28
2019-03-02T08:12:45.288Z,1010.31
2019-03-02T08:13:28.462Z,1010.27
2019-03-02T08:14:12.254Z,1010.27
2019-03-02T08:14:55.650Z,1010.29
2019-03-02T08:15:38.714Z,1010.3
2019-03-02T08:16:23.157Z,1010.33
2019-03-02T08:17:09.737Z,1010.25
2019-03-02T08:17:50.110Z,1010.27